sensor_id;sensor_type;location;lat;lon;timestamp;P1;durP1;ratioP1;P2;durP2;ratioP2
55009;SDS011;40903;51.638;7.528;2023-06-10T00:00:45;9.27;;;8.47;;
55009;SDS011;40903;51.638;7.528;2023-06-10T00:03:11;9.80;;;8.90;;
55009;SDS011;40903;51.638;7.528;2023-06-10T00:05:37;9.53;;;8.63;;
55009;SDS011;40903;51.638;7.528;2023-06-10T00:08:04;9.63;;;8.73;;
55009;SDS011;40903;51.638;7.528;2023-06-10T00:10:35;10.10;;;9.20;;
55009;SDS011;40903;51.638;7.528;2023-06-10T00:13:02;10.20;;;9.20;;
55009;SDS011;40903;51.638;7.528;2023-06-10T00:15:29;10.93;;;9.13;;
55009;SDS011;40903;51.638;7.528;2023-06-10T00:17:54;11.43;;;10.30;;
55009;SDS011;40903;51.638;7.528;2023-06-10T00:20:20;10.33;;;9.23;;
55009;SDS011;40903;51.638;7.528;2023-06-10T00:22:48;10.53;;;9.23;;
55009;SDS011;40903;51.638;7.528;2023-06-10T00:25:14;10.57;;;9.57;;
55009;SDS011;40903;51.638;7.528;2023-06-10T00:27:40;10.70;;;9.47;;
55009;SDS011;40903;51.638;7.528;2023-06-10T00:30:05;11.20;;;10.10;;
55009;SDS011;40903;51.638;7.528;2023-06-10T00:32:35;11.03;;;9.93;;
55009;SDS011;40903;51.638;7.528;2023-06-10T00:35:01;12.33;;;10.60;;
55009;SDS011;40903;51.638;7.528;2023-06-10T00:37:27;11.33;;;10.23;;
55009;SDS011;40903;51.638;7.528;2023-06-10T00:39:53;10.43;;;9.23;;
55009;SDS011;40903;51.638;7.528;2023-06-10T00:42:19;10.20;;;9.20;;
55009;SDS011;40903;51.638;7.528;2023-06-10T00:44:44;10.70;;;9.60;;
55009;SDS011;40903;51.638;7.528;2023-06-10T00:47:10;10.33;;;9.30;;
55009;SDS011;40903;51.638;7.528;2023-06-10T00:49:35;11.60;;;10.40;;
55009;SDS011;40903;51.638;7.528;2023-06-10T00:52:01;12.27;;;10.70;;
55009;SDS011;40903;51.638;7.528;2023-06-10T00:54:29;10.60;;;9.60;;
55009;SDS011;40903;51.638;7.528;2023-06-10T00:56:55;12.03;;;10.73;;
55009;SDS011;40903;51.638;7.528;2023-06-10T00:59:21;10.47;;;9.37;;
55009;SDS011;40903;51.638;7.528;2023-06-10T01:01:47;10.87;;;9.87;;
55009;SDS011;40903;51.638;7.528;2023-06-10T01:04:12;10.63;;;9.53;;
55009;SDS011;40903;51.638;7.528;2023-06-10T01:06:45;11.33;;;10.20;;
55009;SDS011;40903;51.638;7.528;2023-06-10T01:14:57;11.17;;;10.07;;
55009;SDS011;40903;51.638;7.528;2023-06-10T01:17:24;11.53;;;10.40;;
55009;SDS011;40903;51.638;7.528;2023-06-10T01:19:55;11.70;;;10.37;;
55009;SDS011;40903;51.638;7.528;2023-06-10T01:22:26;11.00;;;9.93;;
55009;SDS011;40903;51.638;7.528;2023-06-10T01:25:01;11.13;;;10.00;;
55009;SDS011;40903;51.638;7.528;2023-06-10T01:27:29;12.37;;;9.77;;
55009;SDS011;40903;51.638;7.528;2023-06-10T01:30:05;13.83;;;10.77;;
55009;SDS011;40903;51.638;7.528;2023-06-10T01:32:47;11.93;;;10.73;;
55009;SDS011;40903;51.638;7.528;2023-06-10T01:35:18;12.63;;;10.50;;
55009;SDS011;40903;51.638;7.528;2023-06-10T01:37:49;10.97;;;9.83;;
55009;SDS011;40903;51.638;7.528;2023-06-10T01:40:18;11.43;;;10.33;;
55009;SDS011;40903;51.638;7.528;2023-06-10T01:42:44;10.43;;;9.43;;
55009;SDS011;40903;51.638;7.528;2023-06-10T01:45:09;11.00;;;9.60;;
55009;SDS011;40903;51.638;7.528;2023-06-10T01:47:35;11.63;;;9.77;;
55009;SDS011;40903;51.638;7.528;2023-06-10T01:50:00;10.43;;;9.43;;
55009;SDS011;40903;51.638;7.528;2023-06-10T01:52:26;9.80;;;8.80;;
55009;SDS011;40903;51.638;7.528;2023-06-10T01:54:51;10.53;;;9.43;;
55009;SDS011;40903;51.638;7.528;2023-06-10T01:57:16;10.70;;;9.63;;
55009;SDS011;40903;51.638;7.528;2023-06-10T01:59:42;10.93;;;9.97;;
55009;SDS011;40903;51.638;7.528;2023-06-10T02:02:09;10.73;;;9.73;;
55009;SDS011;40903;51.638;7.528;2023-06-10T02:04:35;10.43;;;9.33;;
55009;SDS011;40903;51.638;7.528;2023-06-10T02:07:00;10.67;;;9.53;;
55009;SDS011;40903;51.638;7.528;2023-06-10T02:09:28;10.40;;;8.70;;
55009;SDS011;40903;51.638;7.528;2023-06-10T02:11:54;10.63;;;9.60;;
55009;SDS011;40903;51.638;7.528;2023-06-10T02:14:19;11.67;;;9.40;;
55009;SDS011;40903;51.638;7.528;2023-06-10T02:16:45;11.90;;;10.23;;
55009;SDS011;40903;51.638;7.528;2023-06-10T02:19:11;10.57;;;9.27;;
55009;SDS011;40903;51.638;7.528;2023-06-10T02:21:37;10.27;;;9.00;;
55009;SDS011;40903;51.638;7.528;2023-06-10T02:24:03;10.73;;;9.37;;
55009;SDS011;40903;51.638;7.528;2023-06-10T02:26:29;11.13;;;9.27;;
55009;SDS011;40903;51.638;7.528;2023-06-10T02:28:54;10.03;;;9.03;;
55009;SDS011;40903;51.638;7.528;2023-06-10T02:31:20;10.10;;;9.10;;
55009;SDS011;40903;51.638;7.528;2023-06-10T02:33:45;9.70;;;8.60;;
55009;SDS011;40903;51.638;7.528;2023-06-10T02:36:11;10.47;;;9.37;;
55009;SDS011;40903;51.638;7.528;2023-06-10T02:38:38;9.70;;;8.70;;
55009;SDS011;40903;51.638;7.528;2023-06-10T02:41:05;10.73;;;8.87;;
55009;SDS011;40903;51.638;7.528;2023-06-10T02:43:30;10.37;;;8.83;;
55009;SDS011;40903;51.638;7.528;2023-06-10T02:45:56;9.57;;;8.57;;
55009;SDS011;40903;51.638;7.528;2023-06-10T02:48:23;11.97;;;8.77;;
55009;SDS011;40903;51.638;7.528;2023-06-10T02:50:49;9.43;;;8.43;;
55009;SDS011;40903;51.638;7.528;2023-06-10T02:53:14;12.20;;;8.23;;
55009;SDS011;40903;51.638;7.528;2023-06-10T02:55:39;10.80;;;8.23;;
55009;SDS011;40903;51.638;7.528;2023-06-10T02:58:05;9.50;;;8.20;;
55009;SDS011;40903;51.638;7.528;2023-06-10T03:00:32;10.23;;;8.50;;
55009;SDS011;40903;51.638;7.528;2023-06-10T03:02:58;9.20;;;8.30;;
55009;SDS011;40903;51.638;7.528;2023-06-10T03:05:27;10.23;;;7.53;;
55009;SDS011;40903;51.638;7.528;2023-06-10T03:07:53;9.43;;;8.00;;
55009;SDS011;40903;51.638;7.528;2023-06-10T03:10:18;8.90;;;7.67;;
55009;SDS011;40903;51.638;7.528;2023-06-10T03:12:44;9.67;;;8.13;;
55009;SDS011;40903;51.638;7.528;2023-06-10T03:15:09;9.27;;;7.87;;
55009;SDS011;40903;51.638;7.528;2023-06-10T03:17:35;8.67;;;7.50;;
55009;SDS011;40903;51.638;7.528;2023-06-10T03:20:00;7.87;;;7.10;;
55009;SDS011;40903;51.638;7.528;2023-06-10T03:22:25;9.33;;;7.97;;
55009;SDS011;40903;51.638;7.528;2023-06-10T03:24:51;8.57;;;7.67;;
55009;SDS011;40903;51.638;7.528;2023-06-10T03:32:08;9.47;;;7.83;;
55009;SDS011;40903;51.638;7.528;2023-06-10T03:34:33;9.83;;;7.63;;
55009;SDS011;40903;51.638;7.528;2023-06-10T03:36:58;9.20;;;7.33;;
55009;SDS011;40903;51.638;7.528;2023-06-10T03:39:25;10.53;;;7.57;;
55009;SDS011;40903;51.638;7.528;2023-06-10T03:41:50;9.90;;;7.63;;
55009;SDS011;40903;51.638;7.528;2023-06-10T03:44:16;11.87;;;7.93;;
55009;SDS011;40903;51.638;7.528;2023-06-10T03:46:41;9.23;;;7.40;;
55009;SDS011;40903;51.638;7.528;2023-06-10T03:49:07;10.17;;;7.37;;
55009;SDS011;40903;51.638;7.528;2023-06-10T03:51:32;10.20;;;7.83;;
55009;SDS011;40903;51.638;7.528;2023-06-10T03:53:58;7.93;;;7.13;;
55009;SDS011;40903;51.638;7.528;2023-06-10T03:56:23;7.90;;;7.17;;
55009;SDS011;40903;51.638;7.528;2023-06-10T03:58:48;13.17;;;7.80;;
55009;SDS011;40903;51.638;7.528;2023-06-10T04:01:14;10.53;;;7.00;;
55009;SDS011;40903;51.638;7.528;2023-06-10T04:03:39;11.70;;;7.07;;
55009;SDS011;40903;51.638;7.528;2023-06-10T04:06:06;10.73;;;7.73;;
55009;SDS011;40903;51.638;7.528;2023-06-10T04:08:32;10.57;;;7.30;;
55009;SDS011;40903;51.638;7.528;2023-06-10T04:10:58;9.17;;;7.43;;
55009;SDS011;40903;51.638;7.528;2023-06-10T04:13:23;7.93;;;7.07;;
55009;SDS011;40903;51.638;7.528;2023-06-10T04:15:48;7.93;;;7.20;;
55009;SDS011;40903;51.638;7.528;2023-06-10T04:18:14;7.50;;;6.47;;
55009;SDS011;40903;51.638;7.528;2023-06-10T04:20:39;7.17;;;6.47;;
55009;SDS011;40903;51.638;7.528;2023-06-10T04:23:05;8.13;;;7.13;;
55009;SDS011;40903;51.638;7.528;2023-06-10T04:25:30;8.93;;;6.90;;
55009;SDS011;40903;51.638;7.528;2023-06-10T04:27:55;8.50;;;6.93;;
55009;SDS011;40903;51.638;7.528;2023-06-10T04:30:21;9.70;;;7.27;;
55009;SDS011;40903;51.638;7.528;2023-06-10T04:32:47;8.83;;;6.80;;
55009;SDS011;40903;51.638;7.528;2023-06-10T04:35:12;11.50;;;7.60;;
55009;SDS011;40903;51.638;7.528;2023-06-10T04:37:39;8.77;;;6.93;;
55009;SDS011;40903;51.638;7.528;2023-06-10T04:40:04;7.13;;;6.23;;
55009;SDS011;40903;51.638;7.528;2023-06-10T04:42:31;7.60;;;6.80;;
55009;SDS011;40903;51.638;7.528;2023-06-10T04:44:56;8.27;;;6.10;;
55009;SDS011;40903;51.638;7.528;2023-06-10T04:47:22;7.27;;;6.30;;
55009;SDS011;40903;51.638;7.528;2023-06-10T04:49:47;9.63;;;6.33;;
55009;SDS011;40903;51.638;7.528;2023-06-10T04:52:13;9.80;;;6.57;;
55009;SDS011;40903;51.638;7.528;2023-06-10T04:54:39;7.40;;;6.57;;
55009;SDS011;40903;51.638;7.528;2023-06-10T04:57:04;8.17;;;5.90;;
55009;SDS011;40903;51.638;7.528;2023-06-10T04:59:31;10.33;;;6.37;;
55009;SDS011;40903;51.638;7.528;2023-06-10T05:01:56;9.90;;;6.80;;
55009;SDS011;40903;51.638;7.528;2023-06-10T05:04:22;8.17;;;6.13;;
55009;SDS011;40903;51.638;7.528;2023-06-10T05:06:47;7.10;;;5.90;;
55009;SDS011;40903;51.638;7.528;2023-06-10T05:09:12;7.57;;;5.70;;
55009;SDS011;40903;51.638;7.528;2023-06-10T05:11:38;9.37;;;6.60;;
55009;SDS011;40903;51.638;7.528;2023-06-10T05:14:03;8.83;;;6.17;;
55009;SDS011;40903;51.638;7.528;2023-06-10T05:16:28;8.87;;;6.00;;
55009;SDS011;40903;51.638;7.528;2023-06-10T05:18:54;5.93;;;5.23;;
55009;SDS011;40903;51.638;7.528;2023-06-10T05:21:19;8.43;;;6.47;;
55009;SDS011;40903;51.638;7.528;2023-06-10T05:23:45;8.20;;;5.53;;
55009;SDS011;40903;51.638;7.528;2023-06-10T05:26:11;9.60;;;5.90;;
55009;SDS011;40903;51.638;7.528;2023-06-10T05:28:36;7.40;;;5.83;;
55009;SDS011;40903;51.638;7.528;2023-06-10T05:31:02;7.33;;;5.67;;
55009;SDS011;40903;51.638;7.528;2023-06-10T05:33:27;7.30;;;6.30;;
55009;SDS011;40903;51.638;7.528;2023-06-10T05:35:53;7.20;;;5.27;;
55009;SDS011;40903;51.638;7.528;2023-06-10T05:38:18;7.23;;;5.10;;
55009;SDS011;40903;51.638;7.528;2023-06-10T05:40:43;7.43;;;5.97;;
55009;SDS011;40903;51.638;7.528;2023-06-10T05:43:09;7.77;;;5.83;;
55009;SDS011;40903;51.638;7.528;2023-06-10T05:45:35;6.93;;;5.90;;
55009;SDS011;40903;51.638;7.528;2023-06-10T05:48:01;6.87;;;6.17;;
55009;SDS011;40903;51.638;7.528;2023-06-10T05:50:27;7.23;;;6.03;;
55009;SDS011;40903;51.638;7.528;2023-06-10T05:52:52;7.20;;;5.90;;
55009;SDS011;40903;51.638;7.528;2023-06-10T05:55:19;6.30;;;5.67;;
55009;SDS011;40903;51.638;7.528;2023-06-10T05:57:45;8.40;;;5.50;;
55009;SDS011;40903;51.638;7.528;2023-06-10T06:00:10;6.60;;;5.37;;
55009;SDS011;40903;51.638;7.528;2023-06-10T06:02:36;6.93;;;5.60;;
55009;SDS011;40903;51.638;7.528;2023-06-10T06:05:01;5.33;;;4.57;;
55009;SDS011;40903;51.638;7.528;2023-06-10T06:07:26;7.83;;;5.53;;
55009;SDS011;40903;51.638;7.528;2023-06-10T06:09:52;6.93;;;5.27;;
55009;SDS011;40903;51.638;7.528;2023-06-10T06:41:20;6.57;;;5.07;;
55009;SDS011;40903;51.638;7.528;2023-06-10T06:43:46;8.40;;;4.70;;
55009;SDS011;40903;51.638;7.528;2023-06-10T06:46:12;6.20;;;4.97;;
55009;SDS011;40903;51.638;7.528;2023-06-10T06:48:37;4.83;;;4.30;;
55009;SDS011;40903;51.638;7.528;2023-06-10T06:51:03;5.63;;;5.07;;
55009;SDS011;40903;51.638;7.528;2023-06-10T06:53:28;6.23;;;4.57;;
55009;SDS011;40903;51.638;7.528;2023-06-10T06:55:53;6.83;;;4.80;;
55009;SDS011;40903;51.638;7.528;2023-06-10T06:58:18;6.17;;;4.40;;
55009;SDS011;40903;51.638;7.528;2023-06-10T07:00:44;5.13;;;4.60;;
55009;SDS011;40903;51.638;7.528;2023-06-10T07:07:59;7.70;;;4.67;;
55009;SDS011;40903;51.638;7.528;2023-06-10T07:10:25;6.43;;;4.80;;
55009;SDS011;40903;51.638;7.528;2023-06-10T07:12:51;6.17;;;4.70;;
55009;SDS011;40903;51.638;7.528;2023-06-10T07:15:17;4.37;;;3.97;;
55009;SDS011;40903;51.638;7.528;2023-06-10T07:17:43;7.60;;;4.50;;
55009;SDS011;40903;51.638;7.528;2023-06-10T07:20:09;5.50;;;3.80;;
55009;SDS011;40903;51.638;7.528;2023-06-10T07:22:35;8.77;;;4.63;;
55009;SDS011;40903;51.638;7.528;2023-06-10T07:25:00;6.23;;;4.20;;
55009;SDS011;40903;51.638;7.528;2023-06-10T07:27:26;4.70;;;4.20;;
55009;SDS011;40903;51.638;7.528;2023-06-10T07:32:16;5.40;;;4.27;;
55009;SDS011;40903;51.638;7.528;2023-06-10T07:34:42;7.90;;;4.17;;
55009;SDS011;40903;51.638;7.528;2023-06-10T07:37:07;4.90;;;4.07;;
55009;SDS011;40903;51.638;7.528;2023-06-10T07:39:33;6.40;;;4.30;;
55009;SDS011;40903;51.638;7.528;2023-06-10T07:41:59;6.43;;;4.20;;
55009;SDS011;40903;51.638;7.528;2023-06-10T07:44:24;6.80;;;4.00;;
55009;SDS011;40903;51.638;7.528;2023-06-10T07:46:49;5.60;;;3.90;;
55009;SDS011;40903;51.638;7.528;2023-06-10T07:49:15;7.53;;;4.17;;
55009;SDS011;40903;51.638;7.528;2023-06-10T07:51:40;4.53;;;4.10;;
55009;SDS011;40903;51.638;7.528;2023-06-10T07:54:06;5.97;;;3.80;;
55009;SDS011;40903;51.638;7.528;2023-06-10T07:56:31;5.10;;;4.60;;
55009;SDS011;40903;51.638;7.528;2023-06-10T07:58:56;7.03;;;4.40;;
55009;SDS011;40903;51.638;7.528;2023-06-10T08:01:22;10.80;;;4.20;;
55009;SDS011;40903;51.638;7.528;2023-06-10T08:03:48;6.67;;;4.20;;
55009;SDS011;40903;51.638;7.528;2023-06-10T08:06:13;5.57;;;3.80;;
55009;SDS011;40903;51.638;7.528;2023-06-10T08:08:39;4.47;;;3.80;;
55009;SDS011;40903;51.638;7.528;2023-06-10T08:11:08;6.13;;;3.87;;
55009;SDS011;40903;51.638;7.528;2023-06-10T08:13:35;6.20;;;4.47;;
55009;SDS011;40903;51.638;7.528;2023-06-10T08:16:00;6.40;;;4.27;;
55009;SDS011;40903;51.638;7.528;2023-06-10T08:18:26;7.23;;;4.17;;
55009;SDS011;40903;51.638;7.528;2023-06-10T08:20:51;5.63;;;4.23;;
55009;SDS011;40903;51.638;7.528;2023-06-10T08:23:16;4.40;;;4.00;;
55009;SDS011;40903;51.638;7.528;2023-06-10T08:25:42;7.03;;;4.70;;
55009;SDS011;40903;51.638;7.528;2023-06-10T08:28:07;4.83;;;4.13;;
55009;SDS011;40903;51.638;7.528;2023-06-10T08:30:32;5.23;;;4.40;;
55009;SDS011;40903;51.638;7.528;2023-06-10T08:32:58;4.90;;;4.17;;
55009;SDS011;40903;51.638;7.528;2023-06-10T08:35:23;6.53;;;4.40;;
55009;SDS011;40903;51.638;7.528;2023-06-10T08:37:48;5.33;;;3.93;;
55009;SDS011;40903;51.638;7.528;2023-06-10T08:40:14;9.70;;;4.50;;
55009;SDS011;40903;51.638;7.528;2023-06-10T08:42:39;6.47;;;4.13;;
55009;SDS011;40903;51.638;7.528;2023-06-10T08:45:12;5.53;;;4.40;;
55009;SDS011;40903;51.638;7.528;2023-06-10T08:47:45;6.30;;;4.90;;
55009;SDS011;40903;51.638;7.528;2023-06-10T08:50:15;7.90;;;4.80;;
55009;SDS011;40903;51.638;7.528;2023-06-10T08:52:42;4.43;;;4.03;;
55009;SDS011;40903;51.638;7.528;2023-06-10T09:04:52;6.30;;;4.53;;
55009;SDS011;40903;51.638;7.528;2023-06-10T09:07:18;4.90;;;4.23;;
55009;SDS011;40903;51.638;7.528;2023-06-10T09:14:37;4.75;;;4.05;;
55009;SDS011;40903;51.638;7.528;2023-06-10T09:17:03;7.10;;;4.87;;
55009;SDS011;40903;51.638;7.528;2023-06-10T09:19:29;6.23;;;4.63;;
55009;SDS011;40903;51.638;7.528;2023-06-10T09:21:54;5.87;;;4.60;;
55009;SDS011;40903;51.638;7.528;2023-06-10T09:24:23;8.73;;;4.20;;
55009;SDS011;40903;51.638;7.528;2023-06-10T09:26:49;4.87;;;4.37;;
55009;SDS011;40903;51.638;7.528;2023-06-10T09:29:15;6.93;;;4.43;;
55009;SDS011;40903;51.638;7.528;2023-06-10T09:31:41;6.77;;;4.43;;
55009;SDS011;40903;51.638;7.528;2023-06-10T09:34:12;5.27;;;4.27;;
55009;SDS011;40903;51.638;7.528;2023-06-10T09:36:40;6.03;;;4.87;;
55009;SDS011;40903;51.638;7.528;2023-06-10T09:39:13;8.20;;;4.60;;
55009;SDS011;40903;51.638;7.528;2023-06-10T09:41:43;5.57;;;4.90;;
55009;SDS011;40903;51.638;7.528;2023-06-10T09:44:14;4.87;;;4.37;;
55009;SDS011;40903;51.638;7.528;2023-06-10T09:46:41;8.27;;;4.60;;
55009;SDS011;40903;51.638;7.528;2023-06-10T09:49:07;7.33;;;4.30;;
55009;SDS011;40903;51.638;7.528;2023-06-10T09:51:33;4.67;;;4.27;;
55009;SDS011;40903;51.638;7.528;2023-06-10T09:53:58;5.33;;;4.37;;
55009;SDS011;40903;51.638;7.528;2023-06-10T09:56:33;5.53;;;4.37;;
55009;SDS011;40903;51.638;7.528;2023-06-10T09:59:00;5.03;;;4.53;;
55009;SDS011;40903;51.638;7.528;2023-06-10T10:01:25;7.63;;;4.30;;
55009;SDS011;40903;51.638;7.528;2023-06-10T10:03:51;4.57;;;4.03;;
55009;SDS011;40903;51.638;7.528;2023-06-10T10:06:17;5.80;;;4.47;;
55009;SDS011;40903;51.638;7.528;2023-06-10T10:08:44;5.40;;;4.30;;
55009;SDS011;40903;51.638;7.528;2023-06-10T10:11:10;7.47;;;5.50;;
55009;SDS011;40903;51.638;7.528;2023-06-10T10:13:36;5.63;;;5.10;;
55009;SDS011;40903;51.638;7.528;2023-06-10T10:16:04;5.37;;;4.73;;
55009;SDS011;40903;51.638;7.528;2023-06-10T10:18:35;5.07;;;4.57;;
55009;SDS011;40903;51.638;7.528;2023-06-10T10:21:04;7.17;;;4.70;;
55009;SDS011;40903;51.638;7.528;2023-06-10T10:24:00;6.53;;;5.00;;
55009;SDS011;40903;51.638;7.528;2023-06-10T10:26:38;8.30;;;5.07;;
55009;SDS011;40903;51.638;7.528;2023-06-10T10:31:43;6.63;;;4.60;;
55009;SDS011;40903;51.638;7.528;2023-06-10T10:34:15;5.13;;;4.63;;
55009;SDS011;40903;51.638;7.528;2023-06-10T10:36:44;7.17;;;4.80;;
55009;SDS011;40903;51.638;7.528;2023-06-10T10:39:10;8.03;;;5.10;;
55009;SDS011;40903;51.638;7.528;2023-06-10T10:41:37;6.60;;;5.07;;
55009;SDS011;40903;51.638;7.528;2023-06-10T10:44:03;7.10;;;4.87;;
55009;SDS011;40903;51.638;7.528;2023-06-10T10:46:41;7.87;;;5.27;;
55009;SDS011;40903;51.638;7.528;2023-06-10T10:49:13;7.30;;;5.23;;
55009;SDS011;40903;51.638;7.528;2023-06-10T10:51:54;7.37;;;5.43;;
55009;SDS011;40903;51.638;7.528;2023-06-10T10:54:21;5.20;;;4.80;;
55009;SDS011;40903;51.638;7.528;2023-06-10T10:57:10;8.53;;;5.20;;
55009;SDS011;40903;51.638;7.528;2023-06-10T11:05:05;10.30;;;5.20;;
55009;SDS011;40903;51.638;7.528;2023-06-10T11:07:32;6.07;;;5.00;;
55009;SDS011;40903;51.638;7.528;2023-06-10T11:12:25;6.00;;;5.40;;
55009;SDS011;40903;51.638;7.528;2023-06-10T11:15:03;5.67;;;5.03;;
55009;SDS011;40903;51.638;7.528;2023-06-10T11:17:29;6.30;;;5.10;;
55009;SDS011;40903;51.638;7.528;2023-06-10T11:19:55;5.67;;;5.13;;
55009;SDS011;40903;51.638;7.528;2023-06-10T11:22:23;6.73;;;4.90;;
55009;SDS011;40903;51.638;7.528;2023-06-10T11:24:49;5.30;;;4.80;;
55009;SDS011;40903;51.638;7.528;2023-06-10T11:27:19;5.80;;;5.23;;
55009;SDS011;40903;51.638;7.528;2023-06-10T11:29:58;6.40;;;5.33;;
55009;SDS011;40903;51.638;7.528;2023-06-10T11:32:28;5.90;;;5.30;;
55009;SDS011;40903;51.638;7.528;2023-06-10T11:34:55;9.63;;;5.77;;
55009;SDS011;40903;51.638;7.528;2023-06-10T11:37:21;7.23;;;5.40;;
55009;SDS011;40903;51.638;7.528;2023-06-10T11:39:47;7.23;;;4.93;;
55009;SDS011;40903;51.638;7.528;2023-06-10T11:42:16;5.53;;;5.00;;
55009;SDS011;40903;51.638;7.528;2023-06-10T11:44:47;6.67;;;5.57;;
55009;SDS011;40903;51.638;7.528;2023-06-10T11:47:14;6.90;;;5.40;;
55009;SDS011;40903;51.638;7.528;2023-06-10T11:49:39;6.27;;;4.90;;
55009;SDS011;40903;51.638;7.528;2023-06-10T11:52:04;7.00;;;5.67;;
55009;SDS011;40903;51.638;7.528;2023-06-10T11:54:30;5.97;;;5.33;;
55009;SDS011;40903;51.638;7.528;2023-06-10T11:56:58;7.53;;;5.70;;
55009;SDS011;40903;51.638;7.528;2023-06-10T11:59:26;7.43;;;4.83;;
55009;SDS011;40903;51.638;7.528;2023-06-10T12:01:52;5.27;;;4.87;;
55009;SDS011;40903;51.638;7.528;2023-06-10T12:04:17;6.63;;;5.80;;
55009;SDS011;40903;51.638;7.528;2023-06-10T12:11:49;7.07;;;5.43;;
55009;SDS011;40903;51.638;7.528;2023-06-10T12:14:16;6.67;;;5.37;;
55009;SDS011;40903;51.638;7.528;2023-06-10T12:19:58;6.53;;;5.93;;
55009;SDS011;40903;51.638;7.528;2023-06-10T12:22:24;7.13;;;5.57;;
55009;SDS011;40903;51.638;7.528;2023-06-10T12:25:01;6.53;;;5.47;;
55009;SDS011;40903;51.638;7.528;2023-06-10T12:27:29;5.47;;;4.97;;
55009;SDS011;40903;51.638;7.528;2023-06-10T12:29:56;8.47;;;4.80;;
55009;SDS011;40903;51.638;7.528;2023-06-10T12:35:21;6.40;;;5.17;;
55009;SDS011;40903;51.638;7.528;2023-06-10T12:38:09;7.17;;;5.37;;
55009;SDS011;40903;51.638;7.528;2023-06-10T12:40:37;6.50;;;5.80;;
55009;SDS011;40903;51.638;7.528;2023-06-10T12:43:05;6.23;;;4.87;;
55009;SDS011;40903;51.638;7.528;2023-06-10T12:45:32;7.47;;;4.87;;
55009;SDS011;40903;51.638;7.528;2023-06-10T12:50:35;6.57;;;5.40;;
55009;SDS011;40903;51.638;7.528;2023-06-10T12:53:02;7.60;;;5.87;;
55009;SDS011;40903;51.638;7.528;2023-06-10T12:55:28;7.53;;;5.30;;
55009;SDS011;40903;51.638;7.528;2023-06-10T12:57:53;7.30;;;5.60;;
55009;SDS011;40903;51.638;7.528;2023-06-10T13:00:20;8.90;;;5.63;;
55009;SDS011;40903;51.638;7.528;2023-06-10T13:02:45;8.27;;;4.87;;
55009;SDS011;40903;51.638;7.528;2023-06-10T13:05:11;7.00;;;5.30;;
55009;SDS011;40903;51.638;7.528;2023-06-10T13:07:36;7.57;;;5.40;;
55009;SDS011;40903;51.638;7.528;2023-06-10T13:10:01;6.10;;;5.50;;
55009;SDS011;40903;51.638;7.528;2023-06-10T13:12:27;5.67;;;4.87;;
55009;SDS011;40903;51.638;7.528;2023-06-10T13:14:55;5.97;;;5.27;;
55009;SDS011;40903;51.638;7.528;2023-06-10T13:17:21;6.10;;;4.90;;
55009;SDS011;40903;51.638;7.528;2023-06-10T13:19:46;5.77;;;5.17;;
55009;SDS011;40903;51.638;7.528;2023-06-10T13:22:13;7.27;;;5.13;;
55009;SDS011;40903;51.638;7.528;2023-06-10T13:24:39;5.90;;;5.33;;
55009;SDS011;40903;51.638;7.528;2023-06-10T13:27:05;5.87;;;5.30;;
55009;SDS011;40903;51.638;7.528;2023-06-10T13:29:31;6.50;;;5.90;;
55009;SDS011;40903;51.638;7.528;2023-06-10T13:31:56;8.03;;;5.53;;
55009;SDS011;40903;51.638;7.528;2023-06-10T13:34:22;5.57;;;5.10;;
55009;SDS011;40903;51.638;7.528;2023-06-10T13:36:47;5.63;;;5.13;;
55009;SDS011;40903;51.638;7.528;2023-06-10T13:39:13;7.57;;;4.67;;
55009;SDS011;40903;51.638;7.528;2023-06-10T13:41:39;5.97;;;5.40;;
55009;SDS011;40903;51.638;7.528;2023-06-10T13:44:05;5.53;;;5.03;;
55009;SDS011;40903;51.638;7.528;2023-06-10T13:46:31;7.23;;;5.50;;
55009;SDS011;40903;51.638;7.528;2023-06-10T13:48:56;6.13;;;5.37;;
55009;SDS011;40903;51.638;7.528;2023-06-10T13:51:21;7.30;;;5.53;;
55009;SDS011;40903;51.638;7.528;2023-06-10T13:53:47;5.50;;;5.00;;
55009;SDS011;40903;51.638;7.528;2023-06-10T13:56:12;5.90;;;5.30;;
55009;SDS011;40903;51.638;7.528;2023-06-10T13:58:39;6.00;;;5.50;;
55009;SDS011;40903;51.638;7.528;2023-06-10T14:01:06;6.03;;;5.53;;
55009;SDS011;40903;51.638;7.528;2023-06-10T14:03:31;6.03;;;5.43;;
55009;SDS011;40903;51.638;7.528;2023-06-10T14:05:56;10.83;;;5.30;;
55009;SDS011;40903;51.638;7.528;2023-06-10T14:08:22;6.43;;;5.10;;
55009;SDS011;40903;51.638;7.528;2023-06-10T14:10:47;6.37;;;5.13;;
55009;SDS011;40903;51.638;7.528;2023-06-10T14:13:13;5.73;;;5.13;;
55009;SDS011;40903;51.638;7.528;2023-06-10T14:15:38;5.73;;;5.23;;
55009;SDS011;40903;51.638;7.528;2023-06-10T14:18:04;5.73;;;5.23;;
55009;SDS011;40903;51.638;7.528;2023-06-10T14:20:29;5.53;;;5.03;;
55009;SDS011;40903;51.638;7.528;2023-06-10T14:22:56;7.97;;;5.43;;
55009;SDS011;40903;51.638;7.528;2023-06-10T14:25:22;7.07;;;5.30;;
55009;SDS011;40903;51.638;7.528;2023-06-10T14:27:47;6.47;;;5.10;;
55009;SDS011;40903;51.638;7.528;2023-06-10T14:30:13;6.87;;;5.67;;
55009;SDS011;40903;51.638;7.528;2023-06-10T14:32:38;6.10;;;5.50;;
55009;SDS011;40903;51.638;7.528;2023-06-10T14:35:04;5.23;;;4.70;;
55009;SDS011;40903;51.638;7.528;2023-06-10T14:37:29;6.37;;;5.17;;
55009;SDS011;40903;51.638;7.528;2023-06-10T14:39:55;5.63;;;5.20;;
55009;SDS011;40903;51.638;7.528;2023-06-10T14:42:20;6.03;;;5.20;;
55009;SDS011;40903;51.638;7.528;2023-06-10T14:44:45;5.90;;;5.40;;
55009;SDS011;40903;51.638;7.528;2023-06-10T14:47:10;6.00;;;5.40;;
55009;SDS011;40903;51.638;7.528;2023-06-10T14:49:36;5.80;;;5.07;;
55009;SDS011;40903;51.638;7.528;2023-06-10T14:52:01;7.67;;;5.57;;
55009;SDS011;40903;51.638;7.528;2023-06-10T14:54:26;5.77;;;5.27;;
55009;SDS011;40903;51.638;7.528;2023-06-10T14:56:52;5.77;;;5.20;;
55009;SDS011;40903;51.638;7.528;2023-06-10T14:59:17;7.73;;;5.27;;
55009;SDS011;40903;51.638;7.528;2023-06-10T15:01:42;6.43;;;5.37;;
55009;SDS011;40903;51.638;7.528;2023-06-10T15:04:08;8.10;;;5.60;;
55009;SDS011;40903;51.638;7.528;2023-06-10T15:06:33;6.73;;;5.00;;
55009;SDS011;40903;51.638;7.528;2023-06-10T15:08:58;6.60;;;5.00;;
55009;SDS011;40903;51.638;7.528;2023-06-10T15:11:23;6.33;;;5.23;;
55009;SDS011;40903;51.638;7.528;2023-06-10T15:13:49;5.80;;;5.20;;
55009;SDS011;40903;51.638;7.528;2023-06-10T15:16:14;6.67;;;6.07;;
55009;SDS011;40903;51.638;7.528;2023-06-10T15:18:46;5.90;;;4.90;;
55009;SDS011;40903;51.638;7.528;2023-06-10T15:21:11;6.20;;;4.83;;
55009;SDS011;40903;51.638;7.528;2023-06-10T15:23:36;8.20;;;5.27;;
55009;SDS011;40903;51.638;7.528;2023-06-10T15:26:02;7.33;;;5.83;;
55009;SDS011;40903;51.638;7.528;2023-06-10T15:28:27;6.83;;;5.10;;
55009;SDS011;40903;51.638;7.528;2023-06-10T15:30:52;5.80;;;5.17;;
55009;SDS011;40903;51.638;7.528;2023-06-10T15:33:17;6.57;;;5.37;;
55009;SDS011;40903;51.638;7.528;2023-06-10T15:35:43;6.43;;;5.50;;
55009;SDS011;40903;51.638;7.528;2023-06-10T15:38:08;7.37;;;4.97;;
55009;SDS011;40903;51.638;7.528;2023-06-10T15:40:33;6.00;;;5.30;;
55009;SDS011;40903;51.638;7.528;2023-06-10T15:43:00;5.40;;;4.93;;
55009;SDS011;40903;51.638;7.528;2023-06-10T15:45:25;5.47;;;4.97;;
55009;SDS011;40903;51.638;7.528;2023-06-10T15:47:50;8.10;;;4.83;;
55009;SDS011;40903;51.638;7.528;2023-06-10T15:50:16;7.00;;;5.00;;
55009;SDS011;40903;51.638;7.528;2023-06-10T15:52:41;7.73;;;5.67;;
55009;SDS011;40903;51.638;7.528;2023-06-10T15:55:06;7.27;;;5.47;;
55009;SDS011;40903;51.638;7.528;2023-06-10T15:57:32;8.23;;;5.33;;
55009;SDS011;40903;51.638;7.528;2023-06-10T15:59:57;8.97;;;5.47;;
55009;SDS011;40903;51.638;7.528;2023-06-10T16:02:23;5.33;;;4.83;;
55009;SDS011;40903;51.638;7.528;2023-06-10T16:04:48;8.60;;;6.03;;